sensor_id;sensor_type;location;lat;lon;timestamp;temperature;humidity
13409;DHT22;6775;49.574;11.170;2023-02-05T00:02:01;-1.40;99.90
13409;DHT22;6775;49.574;11.170;2023-02-05T00:04:31;-1.60;99.90
13409;DHT22;6775;49.574;11.170;2023-02-05T00:06:59;-1.70;99.90
13409;DHT22;6775;49.574;11.170;2023-02-05T00:09:27;-1.90;99.90
13409;DHT22;6775;49.574;11.170;2023-02-05T00:11:55;-2.10;99.90
13409;DHT22;6775;49.574;11.170;2023-02-05T00:14:24;-2.10;99.90
13409;DHT22;6775;49.574;11.170;2023-02-05T00:16:53;-2.10;99.90
13409;DHT22;6775;49.574;11.170;2023-02-05T00:19:20;-2.10;99.90
13409;DHT22;6775;49.574;11.170;2023-02-05T00:21:50;-2.00;99.90
13409;DHT22;6775;49.574;11.170;2023-02-05T00:24:18;-1.90;99.90
13409;DHT22;6775;49.574;11.170;2023-02-05T00:26:45;-1.80;99.90
13409;DHT22;6775;49.574;11.170;2023-02-05T00:29:13;-1.80;99.90
13409;DHT22;6775;49.574;11.170;2023-02-05T00:31:41;-1.90;99.90
13409;DHT22;6775;49.574;11.170;2023-02-05T00:34:09;-1.90;99.90
13409;DHT22;6775;49.574;11.170;2023-02-05T00:36:37;-2.10;99.90
13409;DHT22;6775;49.574;11.170;2023-02-05T00:39:06;-2.10;99.90
13409;DHT22;6775;49.574;11.170;2023-02-05T00:41:37;-2.30;99.90
13409;DHT22;6775;49.574;11.170;2023-02-05T00:44:05;-2.40;99.90
13409;DHT22;6775;49.574;11.170;2023-02-05T00:46:33;-2.50;99.90
13409;DHT22;6775;49.574;11.170;2023-02-05T00:49:01;-2.60;99.90
13409;DHT22;6775;49.574;11.170;2023-02-05T00:51:29;-2.70;99.90
13409;DHT22;6775;49.574;11.170;2023-02-05T00:53:57;-2.60;99.90
13409;DHT22;6775;49.574;11.170;2023-02-05T00:56:26;-2.60;99.90
13409;DHT22;6775;49.574;11.170;2023-02-05T00:58:54;-2.60;99.90
13409;DHT22;6775;49.574;11.170;2023-02-05T01:01:23;-2.60;99.90
13409;DHT22;6775;49.574;11.170;2023-02-05T01:03:51;-2.50;99.90
13409;DHT22;6775;49.574;11.170;2023-02-05T01:06:19;-2.50;99.90
13409;DHT22;6775;49.574;11.170;2023-02-05T01:08:49;-2.60;99.90
13409;DHT22;6775;49.574;11.170;2023-02-05T01:11:17;-2.60;99.90
13409;DHT22;6775;49.574;11.170;2023-02-05T01:13:47;-2.70;99.90
13409;DHT22;6775;49.574;11.170;2023-02-05T01:16:15;-2.80;99.90
13409;DHT22;6775;49.574;11.170;2023-02-05T01:18:43;-2.70;99.90
13409;DHT22;6775;49.574;11.170;2023-02-05T01:21:11;-2.70;99.90
13409;DHT22;6775;49.574;11.170;2023-02-05T01:23:39;-2.70;99.90
13409;DHT22;6775;49.574;11.170;2023-02-05T01:26:07;-2.80;99.90
13409;DHT22;6775;49.574;11.170;2023-02-05T01:28:35;-2.90;99.90
13409;DHT22;6775;49.574;11.170;2023-02-05T01:31:04;-3.00;99.90
13409;DHT22;6775;49.574;11.170;2023-02-05T01:33:32;-3.20;99.90
13409;DHT22;6775;49.574;11.170;2023-02-05T01:36:00;-3.20;99.90
13409;DHT22;6775;49.574;11.170;2023-02-05T01:38:28;-3.30;99.90
13409;DHT22;6775;49.574;11.170;2023-02-05T01:40:56;-3.40;99.90
13409;DHT22;6775;49.574;11.170;2023-02-05T01:43:25;-3.30;99.90
13409;DHT22;6775;49.574;11.170;2023-02-05T01:48:53;-3.20;99.90
13409;DHT22;6775;49.574;11.170;2023-02-05T01:51:23;-3.20;99.90
13409;DHT22;6775;49.574;11.170;2023-02-05T01:53:53;-3.10;99.90
13409;DHT22;6775;49.574;11.170;2023-02-05T01:56:23;-3.00;99.90
13409;DHT22;6775;49.574;11.170;2023-02-05T01:58:55;-3.00;99.90
13409;DHT22;6775;49.574;11.170;2023-02-05T02:01:25;-3.00;99.90
13409;DHT22;6775;49.574;11.170;2023-02-05T02:03:57;-2.90;99.90
13409;DHT22;6775;49.574;11.170;2023-02-05T02:06:31;-2.90;99.90
13409;DHT22;6775;49.574;11.170;2023-02-05T02:09:00;-2.90;99.90
13409;DHT22;6775;49.574;11.170;2023-02-05T02:11:30;-2.80;99.90
13409;DHT22;6775;49.574;11.170;2023-02-05T02:14:00;-2.80;99.90
13409;DHT22;6775;49.574;11.170;2023-02-05T02:16:32;-2.70;99.90
13409;DHT22;6775;49.574;11.170;2023-02-05T02:19:06;-2.70;99.90
13409;DHT22;6775;49.574;11.170;2023-02-05T02:24:58;-2.50;99.90
13409;DHT22;6775;49.574;11.170;2023-02-05T02:27:40;-2.40;99.90
13409;DHT22;6775;49.574;11.170;2023-02-05T02:30:16;-2.30;99.90
13409;DHT22;6775;49.574;11.170;2023-02-05T02:32:50;-2.30;99.90
13409;DHT22;6775;49.574;11.170;2023-02-05T02:35:22;-2.30;99.90
13409;DHT22;6775;49.574;11.170;2023-02-05T02:37:55;-2.10;99.90
13409;DHT22;6775;49.574;11.170;2023-02-05T02:40:30;-2.10;99.90
13409;DHT22;6775;49.574;11.170;2023-02-05T02:43:05;-2.20;99.90
13409;DHT22;6775;49.574;11.170;2023-02-05T02:45:37;-2.20;99.90
13409;DHT22;6775;49.574;11.170;2023-02-05T02:48:08;-2.40;99.90
13409;DHT22;6775;49.574;11.170;2023-02-05T02:50:39;-2.50;99.90
13409;DHT22;6775;49.574;11.170;2023-02-05T02:53:11;-2.70;99.90
13409;DHT22;6775;49.574;11.170;2023-02-05T02:55:42;-2.80;99.90
13409;DHT22;6775;49.574;11.170;2023-02-05T02:58:15;-2.90;99.90
13409;DHT22;6775;49.574;11.170;2023-02-05T03:00:45;-2.90;99.90
13409;DHT22;6775;49.574;11.170;2023-02-05T03:03:16;-3.00;99.90
13409;DHT22;6775;49.574;11.170;2023-02-05T03:05:47;-3.00;99.90
13409;DHT22;6775;49.574;11.170;2023-02-05T03:08:20;-3.00;99.90
13409;DHT22;6775;49.574;11.170;2023-02-05T03:10:52;-3.10;99.90
13409;DHT22;6775;49.574;11.170;2023-02-05T03:13:23;-3.10;99.90
13409;DHT22;6775;49.574;11.170;2023-02-05T03:15:51;-3.10;99.90
13409;DHT22;6775;49.574;11.170;2023-02-05T03:18:19;-3.10;99.90
13409;DHT22;6775;49.574;11.170;2023-02-05T03:20:51;-3.10;99.90
13409;DHT22;6775;49.574;11.170;2023-02-05T03:23:19;-3.10;99.90
13409;DHT22;6775;49.574;11.170;2023-02-05T03:25:46;-3.10;99.90
13409;DHT22;6775;49.574;11.170;2023-02-05T03:28:14;-3.20;99.90
13409;DHT22;6775;49.574;11.170;2023-02-05T03:30:52;-3.30;99.90
13409;DHT22;6775;49.574;11.170;2023-02-05T03:33:37;-3.20;99.90
13409;DHT22;6775;49.574;11.170;2023-02-05T03:36:16;-3.20;99.90
13409;DHT22;6775;49.574;11.170;2023-02-05T03:38:57;-3.30;99.90
13409;DHT22;6775;49.574;11.170;2023-02-05T03:41:34;-3.30;99.90
13409;DHT22;6775;49.574;11.170;2023-02-05T03:44:27;-3.30;99.90
13409;DHT22;6775;49.574;11.170;2023-02-05T03:47:04;-3.30;99.90
13409;DHT22;6775;49.574;11.170;2023-02-05T03:49:42;-3.30;99.90
13409;DHT22;6775;49.574;11.170;2023-02-05T03:52:14;-3.40;99.90
13409;DHT22;6775;49.574;11.170;2023-02-05T03:54:46;-3.40;99.90
13409;DHT22;6775;49.574;11.170;2023-02-05T03:57:21;-3.50;99.90
13409;DHT22;6775;49.574;11.170;2023-02-05T03:59:50;-3.40;99.90
13409;DHT22;6775;49.574;11.170;2023-02-05T04:02:21;-3.40;99.90
13409;DHT22;6775;49.574;11.170;2023-02-05T04:04:49;-3.40;99.90
13409;DHT22;6775;49.574;11.170;2023-02-05T04:07:17;-3.40;99.90
13409;DHT22;6775;49.574;11.170;2023-02-05T04:09:45;-3.30;99.90
13409;DHT22;6775;49.574;11.170;2023-02-05T04:12:13;-3.30;99.90
13409;DHT22;6775;49.574;11.170;2023-02-05T04:14:40;-3.30;99.90
13409;DHT22;6775;49.574;11.170;2023-02-05T04:17:09;-3.30;99.90
13409;DHT22;6775;49.574;11.170;2023-02-05T04:19:39;-3.30;99.90
13409;DHT22;6775;49.574;11.170;2023-02-05T04:22:07;-3.40;99.90
13409;DHT22;6775;49.574;11.170;2023-02-05T04:24:35;-3.30;99.90
13409;DHT22;6775;49.574;11.170;2023-02-05T04:27:02;-3.30;99.90
13409;DHT22;6775;49.574;11.170;2023-02-05T04:29:30;-3.30;99.90
13409;DHT22;6775;49.574;11.170;2023-02-05T04:31:58;-3.20;99.90
13409;DHT22;6775;49.574;11.170;2023-02-05T04:34:26;-3.30;99.90
13409;DHT22;6775;49.574;11.170;2023-02-05T04:36:55;-3.30;99.90
13409;DHT22;6775;49.574;11.170;2023-02-05T04:39:23;-3.40;99.90
13409;DHT22;6775;49.574;11.170;2023-02-05T04:41:50;-3.40;99.90
13409;DHT22;6775;49.574;11.170;2023-02-05T04:44:18;-3.30;99.90
13409;DHT22;6775;49.574;11.170;2023-02-05T04:46:46;-3.30;99.90
13409;DHT22;6775;49.574;11.170;2023-02-05T04:49:14;-3.30;99.90
13409;DHT22;6775;49.574;11.170;2023-02-05T04:51:42;-3.30;99.90
13409;DHT22;6775;49.574;11.170;2023-02-05T04:54:11;-3.20;99.90
13409;DHT22;6775;49.574;11.170;2023-02-05T04:56:39;-3.30;99.90
13409;DHT22;6775;49.574;11.170;2023-02-05T04:59:07;-3.40;99.90
13409;DHT22;6775;49.574;11.170;2023-02-05T05:01:34;-3.50;99.90
13409;DHT22;6775;49.574;11.170;2023-02-05T05:04:02;-3.60;99.90
13409;DHT22;6775;49.574;11.170;2023-02-05T05:06:30;-3.60;99.90
13409;DHT22;6775;49.574;11.170;2023-02-05T05:08:58;-3.60;99.90
13409;DHT22;6775;49.574;11.170;2023-02-05T05:11:27;-3.70;99.90
13409;DHT22;6775;49.574;11.170;2023-02-05T05:13:56;-3.80;99.90
13409;DHT22;6775;49.574;11.170;2023-02-05T05:16:23;-3.90;99.90
13409;DHT22;6775;49.574;11.170;2023-02-05T05:18:52;-3.90;99.90
13409;DHT22;6775;49.574;11.170;2023-02-05T05:21:19;-3.90;99.90
13409;DHT22;6775;49.574;11.170;2023-02-05T05:23:47;-3.90;99.90
13409;DHT22;6775;49.574;11.170;2023-02-05T05:26:15;-3.90;99.90
13409;DHT22;6775;49.574;11.170;2023-02-05T05:28:44;-3.90;99.90
13409;DHT22;6775;49.574;11.170;2023-02-05T05:31:14;-3.90;99.90
13409;DHT22;6775;49.574;11.170;2023-02-05T05:33:45;-3.80;99.90
13409;DHT22;6775;49.574;11.170;2023-02-05T05:36:13;-3.80;99.90
13409;DHT22;6775;49.574;11.170;2023-02-05T05:38:42;-3.80;99.90
13409;DHT22;6775;49.574;11.170;2023-02-05T05:41:16;-3.80;99.90
13409;DHT22;6775;49.574;11.170;2023-02-05T05:44:03;-3.70;99.90
13409;DHT22;6775;49.574;11.170;2023-02-05T05:46:31;-3.70;99.90
13409;DHT22;6775;49.574;11.170;2023-02-05T05:49:00;-3.60;99.90
13409;DHT22;6775;49.574;11.170;2023-02-05T05:51:29;-3.70;99.90
13409;DHT22;6775;49.574;11.170;2023-02-05T05:53:58;-3.80;99.90
13409;DHT22;6775;49.574;11.170;2023-02-05T05:56:26;-3.90;99.90
13409;DHT22;6775;49.574;11.170;2023-02-05T05:58:54;-4.10;99.90
13409;DHT22;6775;49.574;11.170;2023-02-05T06:01:23;-4.10;99.90
13409;DHT22;6775;49.574;11.170;2023-02-05T06:03:51;-4.20;99.90
13409;DHT22;6775;49.574;11.170;2023-02-05T06:06:18;-4.30;99.90
13409;DHT22;6775;49.574;11.170;2023-02-05T06:08:46;-4.30;99.90
13409;DHT22;6775;49.574;11.170;2023-02-05T06:11:14;-4.30;99.90
13409;DHT22;6775;49.574;11.170;2023-02-05T06:13:42;-4.30;99.90
13409;DHT22;6775;49.574;11.170;2023-02-05T06:16:09;-4.20;99.90
13409;DHT22;6775;49.574;11.170;2023-02-05T06:18:39;-4.10;99.90
13409;DHT22;6775;49.574;11.170;2023-02-05T06:21:06;-4.10;99.90
13409;DHT22;6775;49.574;11.170;2023-02-05T06:23:36;-4.10;99.90
13409;DHT22;6775;49.574;11.170;2023-02-05T06:26:04;-4.00;99.90
13409;DHT22;6775;49.574;11.170;2023-02-05T06:28:32;-4.00;99.90
13409;DHT22;6775;49.574;11.170;2023-02-05T06:30:59;-4.00;99.90
13409;DHT22;6775;49.574;11.170;2023-02-05T06:33:27;-4.00;99.90
13409;DHT22;6775;49.574;11.170;2023-02-05T06:35:57;-4.00;99.90
13409;DHT22;6775;49.574;11.170;2023-02-05T06:38:24;-3.90;99.90
13409;DHT22;6775;49.574;11.170;2023-02-05T06:40:52;-3.90;99.90
13409;DHT22;6775;49.574;11.170;2023-02-05T06:43:20;-3.90;99.90
13409;DHT22;6775;49.574;11.170;2023-02-05T06:45:48;-3.90;99.90
13409;DHT22;6775;49.574;11.170;2023-02-05T06:48:15;-3.90;99.90
13409;DHT22;6775;49.574;11.170;2023-02-05T06:50:44;-3.90;99.90
13409;DHT22;6775;49.574;11.170;2023-02-05T06:53:13;-3.80;99.90
13409;DHT22;6775;49.574;11.170;2023-02-05T06:55:41;-3.70;99.90
13409;DHT22;6775;49.574;11.170;2023-02-05T06:58:08;-3.70;99.90
13409;DHT22;6775;49.574;11.170;2023-02-05T07:00:36;-3.70;99.90
13409;DHT22;6775;49.574;11.170;2023-02-05T07:03:04;-3.60;99.90
13409;DHT22;6775;49.574;11.170;2023-02-05T07:05:32;-3.60;99.90
13409;DHT22;6775;49.574;11.170;2023-02-05T07:08:01;-3.60;99.90
13409;DHT22;6775;49.574;11.170;2023-02-05T07:10:33;-3.40;99.90
13409;DHT22;6775;49.574;11.170;2023-02-05T07:13:01;-3.30;99.90
13409;DHT22;6775;49.574;11.170;2023-02-05T07:15:31;-3.10;99.90
13409;DHT22;6775;49.574;11.170;2023-02-05T07:18:02;-3.00;99.90
13409;DHT22;6775;49.574;11.170;2023-02-05T07:20:31;-2.90;99.90
13409;DHT22;6775;49.574;11.170;2023-02-05T07:22:59;-2.90;99.90
13409;DHT22;6775;49.574;11.170;2023-02-05T07:25:26;-2.90;99.90
13409;DHT22;6775;49.574;11.170;2023-02-05T07:27:55;-2.90;99.90
13409;DHT22;6775;49.574;11.170;2023-02-05T07:30:23;-2.80;99.90
13409;DHT22;6775;49.574;11.170;2023-02-05T07:32:51;-2.80;99.90
13409;DHT22;6775;49.574;11.170;2023-02-05T07:35:19;-2.80;99.90
13409;DHT22;6775;49.574;11.170;2023-02-05T07:37:50;-2.80;99.90
13409;DHT22;6775;49.574;11.170;2023-02-05T07:40:18;-2.70;99.90
13409;DHT22;6775;49.574;11.170;2023-02-05T07:42:46;-2.60;99.90
13409;DHT22;6775;49.574;11.170;2023-02-05T07:45:15;-2.50;99.90
13409;DHT22;6775;49.574;11.170;2023-02-05T07:47:43;-2.30;99.90
13409;DHT22;6775;49.574;11.170;2023-02-05T07:50:10;-2.10;99.90
13409;DHT22;6775;49.574;11.170;2023-02-05T07:52:38;-2.00;99.90
13409;DHT22;6775;49.574;11.170;2023-02-05T07:55:06;-1.60;99.90
13409;DHT22;6775;49.574;11.170;2023-02-05T07:57:34;-1.40;99.90
13409;DHT22;6775;49.574;11.170;2023-02-05T08:00:03;-1.10;99.90
13409;DHT22;6775;49.574;11.170;2023-02-05T08:02:32;-0.80;99.90
13409;DHT22;6775;49.574;11.170;2023-02-05T08:05:00;-0.30;99.90
13409;DHT22;6775;49.574;11.170;2023-02-05T08:07:28;-0.10;99.90
13409;DHT22;6775;49.574;11.170;2023-02-05T08:09:56;0.30;99.90
13409;DHT22;6775;49.574;11.170;2023-02-05T08:12:23;0.60;99.90
13409;DHT22;6775;49.574;11.170;2023-02-05T08:14:51;1.00;99.90
13409;DHT22;6775;49.574;11.170;2023-02-05T08:17:19;1.40;99.90
13409;DHT22;6775;49.574;11.170;2023-02-05T08:19:49;1.90;99.90
13409;DHT22;6775;49.574;11.170;2023-02-05T08:22:17;2.30;99.90
13409;DHT22;6775;49.574;11.170;2023-02-05T08:24:44;2.60;99.90
13409;DHT22;6775;49.574;11.170;2023-02-05T08:27:12;2.90;99.90
13409;DHT22;6775;49.574;11.170;2023-02-05T08:29:40;3.00;99.90
13409;DHT22;6775;49.574;11.170;2023-02-05T08:32:08;3.30;99.90
13409;DHT22;6775;49.574;11.170;2023-02-05T08:34:36;3.90;99.90
13409;DHT22;6775;49.574;11.170;2023-02-05T08:37:05;4.50;99.90
13409;DHT22;6775;49.574;11.170;2023-02-05T08:39:33;4.60;99.90
13409;DHT22;6775;49.574;11.170;2023-02-05T08:42:00;4.40;99.90
13409;DHT22;6775;49.574;11.170;2023-02-05T08:44:28;4.20;99.90
13409;DHT22;6775;49.574;11.170;2023-02-05T08:46:56;4.10;99.90
13409;DHT22;6775;49.574;11.170;2023-02-05T08:49:24;4.40;99.90
13409;DHT22;6775;49.574;11.170;2023-02-05T08:51:52;4.60;99.90
13409;DHT22;6775;49.574;11.170;2023-02-05T08:54:21;4.50;99.90
13409;DHT22;6775;49.574;11.170;2023-02-05T08:56:49;4.40;99.90
13409;DHT22;6775;49.574;11.170;2023-02-05T08:59:18;4.40;99.90
13409;DHT22;6775;49.574;11.170;2023-02-05T09:01:46;4.40;99.90
13409;DHT22;6775;49.574;11.170;2023-02-05T09:04:15;4.10;99.90
13409;DHT22;6775;49.574;11.170;2023-02-05T09:06:43;3.70;99.90
13409;DHT22;6775;49.574;11.170;2023-02-05T09:09:12;3.30;99.90
13409;DHT22;6775;49.574;11.170;2023-02-05T09:11:41;3.00;99.90
13409;DHT22;6775;49.574;11.170;2023-02-05T09:14:09;2.90;99.90
13409;DHT22;6775;49.574;11.170;2023-02-05T09:16:37;2.90;99.90
13409;DHT22;6775;49.574;11.170;2023-02-05T09:19:06;2.80;99.90
13409;DHT22;6775;49.574;11.170;2023-02-05T09:21:34;2.70;99.90
13409;DHT22;6775;49.574;11.170;2023-02-05T09:24:02;2.50;99.90
13409;DHT22;6775;49.574;11.170;2023-02-05T09:26:30;2.30;99.90
13409;DHT22;6775;49.574;11.170;2023-02-05T09:28:59;2.10;99.90
13409;DHT22;6775;49.574;11.170;2023-02-05T09:31:27;2.00;99.90
13409;DHT22;6775;49.574;11.170;2023-02-05T09:33:55;1.90;99.90
13409;DHT22;6775;49.574;11.170;2023-02-05T09:36:23;1.80;99.90
13409;DHT22;6775;49.574;11.170;2023-02-05T09:38:51;1.70;99.90
13409;DHT22;6775;49.574;11.170;2023-02-05T09:41:50;1.60;99.90
13409;DHT22;6775;49.574;11.170;2023-02-05T09:44:33;1.50;99.90
13409;DHT22;6775;49.574;11.170;2023-02-05T09:47:12;1.60;99.90
13409;DHT22;6775;49.574;11.170;2023-02-05T09:49:49;1.60;99.90
13409;DHT22;6775;49.574;11.170;2023-02-05T09:52:21;1.60;99.90
13409;DHT22;6775;49.574;11.170;2023-02-05T09:54:56;1.60;99.90
13409;DHT22;6775;49.574;11.170;2023-02-05T09:57:32;1.60;99.90
13409;DHT22;6775;49.574;11.170;2023-02-05T10:00:04;1.50;99.90
13409;DHT22;6775;49.574;11.170;2023-02-05T10:02:44;1.60;99.90
13409;DHT22;6775;49.574;11.170;2023-02-05T10:05:16;1.70;99.90
13409;DHT22;6775;49.574;11.170;2023-02-05T10:07:49;1.70;99.90
13409;DHT22;6775;49.574;11.170;2023-02-05T10:10:23;1.70;99.90
13409;DHT22;6775;49.574;11.170;2023-02-05T10:13:17;1.70;99.90
13409;DHT22;6775;49.574;11.170;2023-02-05T10:19:01;1.70;99.90
13409;DHT22;6775;49.574;11.170;2023-02-05T10:21:42;1.70;99.90
13409;DHT22;6775;49.574;11.170;2023-02-05T10:24:24;1.80;99.90
13409;DHT22;6775;49.574;11.170;2023-02-05T10:26:59;1.80;99.90
13409;DHT22;6775;49.574;11.170;2023-02-05T10:29:35;1.80;99.90
13409;DHT22;6775;49.574;11.170;2023-02-05T10:32:18;1.80;99.90
13409;DHT22;6775;49.574;11.170;2023-02-05T10:34:54;1.80;99.90
13409;DHT22;6775;49.574;11.170;2023-02-05T10:37:32;1.80;99.90
13409;DHT22;6775;49.574;11.170;2023-02-05T10:40:10;1.90;99.90
13409;DHT22;6775;49.574;11.170;2023-02-05T10:42:41;1.80;99.90
13409;DHT22;6775;49.574;11.170;2023-02-05T10:45:16;1.80;99.90
13409;DHT22;6775;49.574;11.170;2023-02-05T10:48:02;1.90;99.90
13409;DHT22;6775;49.574;11.170;2023-02-05T10:50:45;1.90;99.90
13409;DHT22;6775;49.574;11.170;2023-02-05T10:53:17;1.90;99.90
13409;DHT22;6775;49.574;11.170;2023-02-05T10:55:45;2.00;99.90
13409;DHT22;6775;49.574;11.170;2023-02-05T10:58:30;2.00;99.90
13409;DHT22;6775;49.574;11.170;2023-02-05T11:01:02;2.00;99.90
13409;DHT22;6775;49.574;11.170;2023-02-05T11:03:33;2.00;99.90
13409;DHT22;6775;49.574;11.170;2023-02-05T11:06:01;2.00;99.90
13409;DHT22;6775;49.574;11.170;2023-02-05T11:08:34;2.00;99.90
13409;DHT22;6775;49.574;11.170;2023-02-05T11:11:03;2.00;99.90
13409;DHT22;6775;49.574;11.170;2023-02-05T11:13:32;2.00;99.90
13409;DHT22;6775;49.574;11.170;2023-02-05T11:16:06;2.10;99.90
13409;DHT22;6775;49.574;11.170;2023-02-05T11:18:39;2.10;99.90
13409;DHT22;6775;49.574;11.170;2023-02-05T11:21:08;2.10;99.90
13409;DHT22;6775;49.574;11.170;2023-02-05T11:23:37;2.20;99.90
13409;DHT22;6775;49.574;11.170;2023-02-05T11:26:09;2.20;99.90
13409;DHT22;6775;49.574;11.170;2023-02-05T11:28:37;2.30;99.90
13409;DHT22;6775;49.574;11.170;2023-02-05T11:31:23;2.30;99.90
13409;DHT22;6775;49.574;11.170;2023-02-05T11:34:09;2.30;99.90
13409;DHT22;6775;49.574;11.170;2023-02-05T11:36:45;2.30;99.90
13409;DHT22;6775;49.574;11.170;2023-02-05T11:39:27;2.30;99.90
13409;DHT22;6775;49.574;11.170;2023-02-05T11:41:56;2.30;99.90
13409;DHT22;6775;49.574;11.170;2023-02-05T11:44:25;2.30;99.90
13409;DHT22;6775;49.574;11.170;2023-02-05T11:46:58;2.30;99.90
13409;DHT22;6775;49.574;11.170;2023-02-05T11:49:33;2.20;99.90
13409;DHT22;6775;49.574;11.170;2023-02-05T11:52:08;2.30;99.90
13409;DHT22;6775;49.574;11.170;2023-02-05T11:54:37;2.30;99.90
13409;DHT22;6775;49.574;11.170;2023-02-05T11:59:54;2.30;99.90
13409;DHT22;6775;49.574;11.170;2023-02-05T12:02:28;2.30;99.90
13409;DHT22;6775;49.574;11.170;2023-02-05T12:05:01;2.30;99.90
13409;DHT22;6775;49.574;11.170;2023-02-05T12:07:35;2.40;99.90
13409;DHT22;6775;49.574;11.170;2023-02-05T12:10:13;2.50;99.90
13409;DHT22;6775;49.574;11.170;2023-02-05T12:12:48;2.50;99.90
13409;DHT22;6775;49.574;11.170;2023-02-05T12:15:23;2.60;99.90
13409;DHT22;6775;49.574;11.170;2023-02-05T12:17:58;2.60;99.90
13409;DHT22;6775;49.574;11.170;2023-02-05T12:20:33;2.50;99.90
13409;DHT22;6775;49.574;11.170;2023-02-05T12:23:24;2.50;99.90
13409;DHT22;6775;49.574;11.170;2023-02-05T12:26:04;2.50;99.90
13409;DHT22;6775;49.574;11.170;2023-02-05T12:28:44;2.50;99.90
13409;DHT22;6775;49.574;11.170;2023-02-05T12:31:20;2.50;99.90
13409;DHT22;6775;49.574;11.170;2023-02-05T12:34:03;2.60;99.90
13409;DHT22;6775;49.574;11.170;2023-02-05T12:36:45;2.60;99.90
13409;DHT22;6775;49.574;11.170;2023-02-05T12:39:26;2.70;99.90
13409;DHT22;6775;49.574;11.170;2023-02-05T12:42:02;2.80;99.90
13409;DHT22;6775;49.574;11.170;2023-02-05T12:44:43;2.80;99.90
13409;DHT22;6775;49.574;11.170;2023-02-05T12:47:27;2.80;99.90
13409;DHT22;6775;49.574;11.170;2023-02-05T12:50:13;2.80;99.90
13409;DHT22;6775;49.574;11.170;2023-02-05T12:53:04;2.90;99.90
13409;DHT22;6775;49.574;11.170;2023-02-05T12:55:45;2.90;99.90
13409;DHT22;6775;49.574;11.170;2023-02-05T12:58:16;2.90;99.90
13409;DHT22;6775;49.574;11.170;2023-02-05T13:00:49;2.90;99.90
13409;DHT22;6775;49.574;11.170;2023-02-05T13:03:25;3.00;99.90
13409;DHT22;6775;49.574;11.170;2023-02-05T13:05:57;3.10;99.90
13409;DHT22;6775;49.574;11.170;2023-02-05T13:08:37;3.10;99.90
13409;DHT22;6775;49.574;11.170;2023-02-05T13:11:11;3.10;99.90
13409;DHT22;6775;49.574;11.170;2023-02-05T13:13:49;3.10;99.90
13409;DHT22;6775;49.574;11.170;2023-02-05T13:16:21;3.10;99.90
13409;DHT22;6775;49.574;11.170;2023-02-05T13:18:57;3.10;99.90
13409;DHT22;6775;49.574;11.170;2023-02-05T13:21:26;3.10;99.90
13409;DHT22;6775;49.574;11.170;2023-02-05T13:24:22;3.00;99.90
13409;DHT22;6775;49.574;11.170;2023-02-05T13:27:20;3.00;99.90
13409;DHT22;6775;49.574;11.170;2023-02-05T13:30:04;3.00;99.90
13409;DHT22;6775;49.574;11.170;2023-02-05T13:32:33;2.90;99.90
13409;DHT22;6775;49.574;11.170;2023-02-05T13:35:02;2.90;99.90
13409;DHT22;6775;49.574;11.170;2023-02-05T13:38:03;2.90;99.90
13409;DHT22;6775;49.574;11.170;2023-02-05T13:40:55;2.90;99.90
13409;DHT22;6775;49.574;11.170;2023-02-05T13:43:52;2.90;99.90
13409;DHT22;6775;49.574;11.170;2023-02-05T13:46:41;2.90;99.90
13409;DHT22;6775;49.574;11.170;2023-02-05T13:49:32;2.90;99.90
13409;DHT22;6775;49.574;11.170;2023-02-05T13:52:19;2.80;99.90
13409;DHT22;6775;49.574;11.170;2023-02-05T13:55:10;2.80;99.90
13409;DHT22;6775;49.574;11.170;2023-02-05T14:00:55;2.70;99.90
13409;DHT22;6775;49.574;11.170;2023-02-05T14:03:29;2.80;99.90
13409;DHT22;6775;49.574;11.170;2023-02-05T14:06:12;2.70;99.90
13409;DHT22;6775;49.574;11.170;2023-02-05T14:08:41;2.70;99.90
13409;DHT22;6775;49.574;11.170;2023-02-05T14:11:10;2.70;99.90
13409;DHT22;6775;49.574;11.170;2023-02-05T14:13:38;2.70;99.90
13409;DHT22;6775;49.574;11.170;2023-02-05T14:16:32;2.60;99.90
13409;DHT22;6775;49.574;11.170;2023-02-05T14:19:13;2.60;99.90
13409;DHT22;6775;49.574;11.170;2023-02-05T14:21:59;2.50;99.90
13409;DHT22;6775;49.574;11.170;2023-02-05T14:24:37;2.50;99.90
13409;DHT22;6775;49.574;11.170;2023-02-05T14:30:33;2.40;99.90
13409;DHT22;6775;49.574;11.170;2023-02-05T14:33:26;2.40;99.90
13409;DHT22;6775;49.574;11.170;2023-02-05T14:35:54;2.40;99.90
13409;DHT22;6775;49.574;11.170;2023-02-05T14:38:26;2.30;99.90
13409;DHT22;6775;49.574;11.170;2023-02-05T14:41:05;2.30;99.90
13409;DHT22;6775;49.574;11.170;2023-02-05T14:43:37;2.30;99.90
13409;DHT22;6775;49.574;11.170;2023-02-05T14:46:19;2.30;99.90
13409;DHT22;6775;49.574;11.170;2023-02-05T14:48:49;2.30;99.90
13409;DHT22;6775;49.574;11.170;2023-02-05T14:51:22;2.30;99.90
13409;DHT22;6775;49.574;11.170;2023-02-05T14:53:55;2.30;99.90
13409;DHT22;6775;49.574;11.170;2023-02-05T14:56:26;2.30;99.90
13409;DHT22;6775;49.574;11.170;2023-02-05T14:59:00;2.30;99.90
13409;DHT22;6775;49.574;11.170;2023-02-05T15:01:43;2.40;99.90
13409;DHT22;6775;49.574;11.170;2023-02-05T15:04:21;2.30;99.90
13409;DHT22;6775;49.574;11.170;2023-02-05T15:06:51;2.40;99.90
13409;DHT22;6775;49.574;11.170;2023-02-05T15:09:32;2.30;99.90
13409;DHT22;6775;49.574;11.170;2023-02-05T15:15:24;2.40;99.90
13409;DHT22;6775;49.574;11.170;2023-02-05T15:17:55;2.30;99.90
13409;DHT22;6775;49.574;11.170;2023-02-05T15:20:27;2.40;99.90
13409;DHT22;6775;49.574;11.170;2023-02-05T15:23:04;2.40;99.90
13409;DHT22;6775;49.574;11.170;2023-02-05T15:25:36;2.40;99.90
13409;DHT22;6775;49.574;11.170;2023-02-05T15:28:19;2.40;99.90
13409;DHT22;6775;49.574;11.170;2023-02-05T15:30:53;2.40;99.90
13409;DHT22;6775;49.574;11.170;2023-02-05T15:33:32;2.30;99.90
13409;DHT22;6775;49.574;11.170;2023-02-05T15:36:10;2.30;99.90
13409;DHT22;6775;49.574;11.170;2023-02-05T15:38:45;2.40;99.90
13409;DHT22;6775;49.574;11.170;2023-02-05T15:41:15;2.30;99.90
13409;DHT22;6775;49.574;11.170;2023-02-05T15:43:56;2.30;99.90
13409;DHT22;6775;49.574;11.170;2023-02-05T15:46:25;2.30;99.90
13409;DHT22;6775;49.574;11.170;2023-02-05T15:48:54;2.30;99.90
13409;DHT22;6775;49.574;11.170;2023-02-05T15:51:28;2.30;99.90
13409;DHT22;6775;49.574;11.170;2023-02-05T15:53:59;2.30;99.90
13409;DHT22;6775;49.574;11.170;2023-02-05T15:56:30;2.30;99.90
13409;DHT22;6775;49.574;11.170;2023-02-05T15:59:04;2.20;99.90
13409;DHT22;6775;49.574;11.170;2023-02-05T16:01:34;2.10;99.90
13409;DHT22;6775;49.574;11.170;2023-02-05T16:04:15;2.20;99.90
13409;DHT22;6775;49.574;11.170;2023-02-05T16:06:44;2.10;99.90
13409;DHT22;6775;49.574;11.170;2023-02-05T16:09:16;2.00;99.90
13409;DHT22;6775;49.574;11.170;2023-02-05T16:11:45;2.00;99.90
13409;DHT22;6775;49.574;11.170;2023-02-05T16:14:15;2.00;99.90
13409;DHT22;6775;49.574;11.170;2023-02-05T16:16:56;2.00;99.90
13409;DHT22;6775;49.574;11.170;2023-02-05T16:19:28;2.00;99.90
13409;DHT22;6775;49.574;11.170;2023-02-05T16:22:01;2.00;99.90
13409;DHT22;6775;49.574;11.170;2023-02-05T16:24:34;1.90;99.90
13409;DHT22;6775;49.574;11.170;2023-02-05T16:27:05;1.90;99.90
13409;DHT22;6775;49.574;11.170;2023-02-05T16:29:38;1.90;99.90
13409;DHT22;6775;49.574;11.170;2023-02-05T16:32:19;1.80;99.90